Terminal Aerodrome Forecast
Issued by NWS

Home | Current Version | Previous Version | Text Only | Print | Product List | Glossary Off
Versions: 1 2 3 4 5 6 7 8 9 10 11 12 13 14 15 16 17 18

000
FTUS43 KMPX 241459 AAA
TAFRWF
TAF AMD
KRWF 241459Z 2415/2512 32020G30KT P6SM SCT030 BKN050
     FM250200 32012KT P6SM FEW020 BKN100
     FM250900 03004KT P6SM OVC050=

USA.gov is the U.S. government's official web portal to all federal, state and local government web resources and services.